Time;durP1;ratioP1;P1;durP2;ratioP2;P2;SDS_P1;SDS_P2;PMS_P1;PMS_P2;Temp;Humidity;BMP_temperature;BMP_pressure;BME280_temperature;BME280_humidity;BME280_pressure;Samples;Min_cycle;Max_cycle;Signal;HPM_P1;HPM_P2
2022/03/05 00:01:57;;;;;;;0.52;0.50;;;7.50;11.00;;;;;;5034219;28;20170;-75
2022/03/05 00:04:23;;;;;;;0.43;0.40;;;7.40;11.90;;;;;;5034197;28;20044;-70
2022/03/05 00:06:49;;;;;;;0.77;0.52;;;7.50;24.20;;;;;;5033991;28;20045;-70
2022/03/05 00:09:17;;;;;;;2.35;0.77;;;7.50;17.20;;;;;;5032803;28;20033;-70
2022/03/05 00:11:44;;;;;;;0.60;0.50;;;7.50;16.90;;;;;;5033272;28;20045;-70
2022/03/05 00:14:10;;;;;;;0.40;0.40;;;7.50;14.20;;;;;;5032997;28;20033;-70
2022/03/05 00:16:36;;;;;;;0.63;0.30;;;7.50;6.10;;;;;;5032666;28;20037;-70
2022/03/05 00:19:02;;;;;;;0.40;0.40;;;7.50;1.00;;;;;;5033671;28;20034;-70
2022/03/05 00:21:28;;;;;;;2.40;0.63;;;7.50;4.50;;;;;;5034369;28;20132;-70
2022/03/05 00:23:54;;;;;;;0.47;0.40;;;7.50;2.20;;;;;;5034024;28;20452;-70
2022/03/05 00:26:20;;;;;;;1.23;0.70;;;7.50;1.00;;;;;;5034783;28;20099;-70
2022/03/05 00:28:46;;;;;;;0.28;0.28;;;7.50;1.00;;;;;;5034532;28;20068;-70
2022/03/05 00:31:12;;;;;;;3.15;1.50;;;7.40;1.00;;;;;;5034759;28;20045;-70
2022/03/05 00:33:38;;;;;;;0.73;0.63;;;7.40;1.00;;;;;;5034625;28;20064;-70
2022/03/05 00:36:04;;;;;;;2.65;1.33;;;7.40;1.00;;;;;;5034001;28;20152;-70
2022/03/05 00:38:30;;;;;;;1.92;1.35;;;7.40;1.00;;;;;;5034516;28;20038;-70
2022/03/05 00:40:56;;;;;;;2.97;1.08;;;7.40;1.00;;;;;;5034722;28;20033;-70
2022/03/05 00:43:21;;;;;;;0.90;0.50;;;7.40;1.00;;;;;;5034676;28;20060;-70
2022/03/05 00:45:47;;;;;;;3.67;0.80;;;7.40;1.00;;;;;;5034360;28;20033;-70
2022/03/05 00:48:13;;;;;;;1.73;0.70;;;7.30;1.00;;;;;;5034464;28;20099;-70
2022/03/05 00:50:39;;;;;;;0.85;0.50;;;7.30;1.00;;;;;;5034623;28;20045;-70
2022/03/05 00:53:06;;;;;;;1.38;0.60;;;7.30;1.00;;;;;;5033983;28;20059;-70
2022/03/05 00:55:32;;;;;;;1.63;0.80;;;7.30;1.00;;;;;;5034628;28;20116;-70
2022/03/05 00:57:57;;;;;;;0.40;0.40;;;7.30;1.00;;;;;;5038285;28;20124;-70
2022/03/05 01:00:23;;;;;;;0.60;0.40;;;7.20;1.00;;;;;;5038513;28;20083;-70
2022/03/05 01:02:49;;;;;;;0.85;0.52;;;7.20;1.00;;;;;;5038216;28;20052;-70
2022/03/05 01:05:15;;;;;;;1.42;1.17;;;7.30;1.00;;;;;;5038119;28;20061;-70
2022/03/05 01:07:41;;;;;;;7.50;5.00;;;7.30;1.00;;;;;;5038048;28;20055;-71
2022/03/05 01:10:07;;;;;;;0.98;0.63;;;7.30;1.00;;;;;;5038585;28;20103;-71
2022/03/05 01:12:34;;;;;;;3.78;1.95;;;7.30;1.00;;;;;;5038161;28;20492;-71
2022/03/05 01:15:00;;;;;;;3.67;1.80;;;7.20;1.00;;;;;;5038266;28;20036;-71
2022/03/05 01:17:26;;;;;;;3.58;1.60;;;7.30;1.00;;;;;;5038061;28;20476;-71
2022/03/05 01:19:51;;;;;;;4.20;2.17;;;7.20;1.00;;;;;;5038173;28;20117;-71
2022/03/05 01:22:17;;;;;;;7.20;3.88;;;7.20;1.00;;;;;;5038421;28;20052;-71
2022/03/05 01:24:43;;;;;;;4.55;2.95;;;7.20;1.00;;;;;;5038063;28;20041;-71
2022/03/05 01:27:09;;;;;;;11.65;6.25;;;7.10;1.00;;;;;;5038026;28;20118;-71
2022/03/05 01:29:35;;;;;;;18.02;9.57;;;7.10;1.00;;;;;;5038232;28;20029;-71
2022/03/05 01:32:01;;;;;;;6.70;4.47;;;7.10;1.00;;;;;;5038011;28;20049;-71
2022/03/05 01:34:27;;;;;;;3.70;1.88;;;7.10;1.00;;;;;;5037953;28;20037;-71
2022/03/05 01:36:52;;;;;;;7.55;2.28;;;7.00;1.00;;;;;;5038002;28;20045;-71
2022/03/05 01:39:18;;;;;;;2.63;0.93;;;7.10;1.00;;;;;;5037423;28;20057;-70
2022/03/05 01:41:46;;;;;;;2.50;1.30;;;7.10;1.00;;;;;;5037917;28;20089;-71
2022/03/05 01:44:12;;;;;;;4.30;2.00;;;7.00;1.00;;;;;;5037397;28;20129;-70
2022/03/05 01:46:39;;;;;;;11.27;4.47;;;7.10;1.00;;;;;;5037364;28;20127;-70
2022/03/05 01:49:08;;;;;;;2.70;0.90;;;7.10;1.00;;;;;;5037357;28;20033;-70
2022/03/05 01:51:34;;;;;;;2.42;1.35;;;7.10;1.00;;;;;;5037290;28;20041;-71
2022/03/05 01:54:01;;;;;;;3.72;1.50;;;7.10;1.00;;;;;;5037280;28;20064;-70
2022/03/05 01:56:28;;;;;;;3.15;1.90;;;7.10;1.00;;;;;;5036897;28;20048;-70
2022/03/05 01:58:54;;;;;;;2.45;1.63;;;7.10;1.00;;;;;;5036810;28;20484;-70
2022/03/05 02:01:22;;;;;;;1.40;1.08;;;7.10;1.00;;;;;;5037140;28;20037;-70
2022/03/05 02:03:49;;;;;;;1.55;0.50;;;7.10;1.00;;;;;;5037134;28;20037;-70
2022/03/05 02:06:15;;;;;;;1.23;0.70;;;7.10;1.00;;;;;;5037093;28;20094;-70
2022/03/05 02:08:41;;;;;;;3.80;2.72;;;7.10;1.00;;;;;;5036651;28;20045;-70
2022/03/05 02:11:07;;;;;;;1.70;0.98;;;7.10;1.00;;;;;;5036939;28;20037;-70
2022/03/05 02:13:32;;;;;;;2.10;1.27;;;7.00;1.00;;;;;;5037000;28;20132;-70
2022/03/05 02:15:58;;;;;;;0.85;0.70;;;6.90;1.00;;;;;;5036534;28;20042;-71
2022/03/05 02:18:24;;;;;;;2.05;0.90;;;7.00;1.00;;;;;;5036644;28;20128;-71
2022/03/05 02:20:51;;;;;;;0.47;0.40;;;7.00;1.00;;;;;;5037076;28;20128;-71
2022/03/05 02:23:17;;;;;;;3.00;0.60;;;7.00;1.00;;;;;;5036328;28;20048;-71
2022/03/05 02:25:58;;;;;;;1.20;0.50;;;7.00;1.00;;;;;;5037212;28;20046;-71
2022/03/05 02:28:25;;;;;;;1.77;0.80;;;7.00;1.00;;;;;;5036742;28;20048;-71
2022/03/05 02:30:51;;;;;;;1.77;0.60;;;7.00;1.00;;;;;;5036892;28;20045;-71
2022/03/05 02:33:17;;;;;;;0.40;0.20;;;7.00;1.00;;;;;;5036148;28;20135;-71
2022/03/05 02:35:44;;;;;;;0.60;0.60;;;7.10;1.00;;;;;;5036205;28;20037;-71
2022/03/05 02:38:14;;;;;;;0.47;0.45;;;7.00;1.00;;;;;;5036474;28;20029;-70
2022/03/05 02:40:41;;;;;;;2.10;0.33;;;7.00;1.00;;;;;;5036214;28;20038;-70
2022/03/05 02:43:08;;;;;;;0.40;0.30;;;6.90;1.70;;;;;;5036116;28;20295;-70
2022/03/05 02:45:34;;;;;;;0.63;0.20;;;6.90;1.00;;;;;;5036861;28;20060;-70
2022/03/05 02:48:05;;;;;;;0.20;0.20;;;6.90;1.00;;;;;;5036106;28;20038;-70
2022/03/05 02:50:32;;;;;;;0.20;0.20;;;6.90;1.00;;;;;;5036222;28;20037;-71
2022/03/05 02:52:58;;;;;;;1.00;0.40;;;7.00;1.00;;;;;;5035769;28;20049;-70
2022/03/05 02:55:24;;;;;;;0.22;0.20;;;7.00;1.00;;;;;;5035831;28;20045;-70
2022/03/05 02:57:50;;;;;;;0.93;0.50;;;7.00;1.00;;;;;;5035891;28;20128;-70
2022/03/05 03:00:16;;;;;;;1.60;1.00;;;6.90;1.00;;;;;;5035711;28;20127;-70
2022/03/05 03:02:45;;;;;;;1.30;0.50;;;6.90;1.00;;;;;;5035706;28;20046;-70
2022/03/05 03:05:14;;;;;;;0.20;0.20;;;6.90;1.00;;;;;;5035810;28;20064;-70
2022/03/05 03:07:40;;;;;;;1.45;0.90;;;6.80;1.00;;;;;;5035574;28;20044;-70
2022/03/05 03:10:07;;;;;;;2.58;1.00;;;6.80;1.00;;;;;;5035489;28;20575;-70
2022/03/05 03:12:33;;;;;;;0.85;0.20;;;6.80;1.00;;;;;;5035647;28;20112;-70
2022/03/05 03:15:00;;;;;;;0.20;0.20;;;6.80;1.00;;;;;;5035741;28;20076;-70
2022/03/05 03:17:26;;;;;;;0.10;0.10;;;6.80;1.00;;;;;;5035816;28;20045;-70
2022/03/05 03:19:51;;;;;;;0.55;0.20;;;6.80;1.00;;;;;;5017585;28;20037;-70
2022/03/05 03:22:18;;;;;;;0.50;0.50;;;6.80;1.00;;;;;;5035616;28;20072;-70
2022/03/05 03:24:45;;;;;;;0.20;0.20;;;6.80;1.00;;;;;;5035682;28;20045;-71
2022/03/05 03:27:10;;;;;;;1.67;0.30;;;6.80;1.00;;;;;;5035895;28;20034;-70
2022/03/05 03:29:36;;;;;;;0.28;0.10;;;6.90;1.00;;;;;;5035738;28;20447;-70
2022/03/05 03:32:03;;;;;;;0.13;0.13;;;6.90;1.00;;;;;;5035198;28;20387;-70
2022/03/05 03:34:29;;;;;;;0.20;0.10;;;7.10;1.00;;;;;;5035826;28;20100;-70
2022/03/05 03:36:55;;;;;;;0.30;0.20;;;7.00;1.00;;;;;;5035554;28;20042;-70
2022/03/05 03:39:21;;;;;;;0.20;0.20;;;7.00;1.00;;;;;;5035540;28;20424;-70
2022/03/05 03:41:47;;;;;;;0.10;0.10;;;7.10;1.00;;;;;;5035444;28;20136;-70
2022/03/05 03:44:13;;;;;;;0.15;0.10;;;7.10;1.00;;;;;;5035178;28;20373;-70
2022/03/05 03:46:39;;;;;;;0.10;0.10;;;7.10;1.00;;;;;;5035243;28;20051;-70
2022/03/05 03:49:05;;;;;;;0.17;0.17;;;7.00;1.00;;;;;;5035412;28;20064;-71
2022/03/05 03:51:31;;;;;;;0.10;0.10;;;7.00;1.00;;;;;;5035352;28;20144;-71
2022/03/05 03:53:57;;;;;;;0.10;0.10;;;7.10;1.00;;;;;;5035288;28;20461;-70
2022/03/05 03:56:22;;;;;;;0.10;0.10;;;7.10;1.00;;;;;;5034992;28;20128;-70
2022/03/05 03:58:48;;;;;;;0.17;0.17;;;7.10;1.00;;;;;;5034932;28;20384;-71
2022/03/05 04:01:14;;;;;;;0.10;0.10;;;7.10;1.00;;;;;;5035755;28;20044;-70
2022/03/05 04:03:40;;;;;;;0.10;0.10;;;7.10;1.00;;;;;;5034962;28;20041;-70
2022/03/05 04:06:06;;;;;;;0.22;0.20;;;7.10;1.00;;;;;;5035372;28;20049;-70
2022/03/05 04:08:52;;;;;;;0.10;0.10;;;7.10;1.00;;;;;;5035070;28;20029;-70
2022/03/05 04:11:19;;;;;;;0.20;0.20;;;7.10;1.00;;;;;;5034285;28;20518;-70
2022/03/05 04:13:48;;;;;;;0.20;0.20;;;7.10;1.00;;;;;;5034812;28;20048;-70
2022/03/05 04:16:14;;;;;;;0.20;0.20;;;7.10;1.00;;;;;;5034335;28;20029;-70
2022/03/05 04:18:41;;;;;;;0.38;0.20;;;7.10;1.00;;;;;;5034583;28;20041;-71
2022/03/05 04:21:08;;;;;;;0.10;0.10;;;7.10;1.00;;;;;;5034662;28;20196;-70
2022/03/05 04:23:34;;;;;;;0.20;0.10;;;7.10;1.00;;;;;;5034644;28;20085;-70
2022/03/05 04:26:00;;;;;;;1.08;0.10;;;7.10;1.00;;;;;;5034764;28;20087;-70
2022/03/05 04:28:27;;;;;;;0.10;0.10;;;7.00;1.00;;;;;;5034256;28;20577;-70
2022/03/05 04:30:53;;;;;;;0.63;0.20;;;7.10;1.00;;;;;;5034364;28;20044;-70
2022/03/05 04:33:18;;;;;;;0.17;0.17;;;7.10;1.00;;;;;;5034680;28;20053;-70
2022/03/05 04:35:44;;;;;;;0.10;0.10;;;7.10;1.00;;;;;;5034468;28;20052;-70
2022/03/05 04:38:10;;;;;;;0.38;0.15;;;7.10;1.00;;;;;;5034690;28;20561;-70
2022/03/05 04:40:36;;;;;;;0.10;0.10;;;7.20;1.00;;;;;;5034671;28;20038;-70
2022/03/05 04:43:02;;;;;;;0.10;0.10;;;7.20;1.00;;;;;;5034728;28;20136;-70
2022/03/05 04:45:28;;;;;;;0.15;0.10;;;7.10;1.00;;;;;;5034437;28;20040;-70
2022/03/05 04:47:54;;;;;;;0.10;0.10;;;7.20;1.00;;;;;;5034587;28;20116;-71
2022/03/05 04:50:20;;;;;;;0.38;0.10;;;7.20;1.00;;;;;;5034895;28;20045;-70
2022/03/05 04:52:46;;;;;;;0.13;0.10;;;7.20;1.00;;;;;;5034908;28;20120;-70
2022/03/05 04:55:12;;;;;;;0.32;0.15;;;7.10;1.00;;;;;;5034592;28;20067;-70
2022/03/05 04:57:38;;;;;;;0.10;0.10;;;7.20;1.00;;;;;;5034581;28;20048;-70
2022/03/05 05:00:07;;;;;;;0.08;0.08;;;7.10;1.00;;;;;;5034559;28;20037;-71
2022/03/05 05:02:33;;;;;;;0.10;0.10;;;7.20;1.00;;;;;;5034413;28;20052;-70
2022/03/05 05:04:59;;;;;;;0.30;0.10;;;7.20;1.00;;;;;;5034254;28;20029;-71
2022/03/05 05:07:25;;;;;;;0.10;0.10;;;7.20;1.00;;;;;;5034761;28;20045;-71
2022/03/05 05:09:50;;;;;;;2.65;0.10;;;7.20;1.00;;;;;;5034168;28;20033;-71
2022/03/05 05:12:16;;;;;;;0.10;0.10;;;7.10;1.00;;;;;;5034886;28;20044;-71
2022/03/05 05:14:42;;;;;;;0.68;0.10;;;7.20;1.00;;;;;;5034617;28;20033;-70
2022/03/05 05:17:08;;;;;;;0.13;0.10;;;7.10;1.00;;;;;;5034087;28;20033;-71
2022/03/05 05:19:34;;;;;;;0.10;0.10;;;7.20;1.00;;;;;;5034369;28;20038;-70
2022/03/05 05:22:04;;;;;;;0.10;0.10;;;7.20;1.00;;;;;;5033970;28;20088;-70
2022/03/05 05:24:33;;;;;;;0.10;0.10;;;7.20;1.00;;;;;;5034076;28;20099;-71
2022/03/05 05:27:00;;;;;;;0.15;0.15;;;7.20;1.00;;;;;;5034044;28;20566;-71
2022/03/05 05:29:26;;;;;;;0.10;0.10;;;7.20;1.00;;;;;;5034736;28;20507;-70
2022/03/05 05:31:52;;;;;;;0.10;0.10;;;7.20;1.00;;;;;;5034290;28;20041;-71
2022/03/05 05:34:18;;;;;;;0.10;0.10;;;7.20;1.00;;;;;;5034883;28;20099;-70
2022/03/05 05:36:45;;;;;;;0.10;0.10;;;7.30;1.00;;;;;;5033608;28;20060;-70
2022/03/05 05:39:11;;;;;;;0.17;0.17;;;7.30;1.00;;;;;;5033651;28;20124;-70
2022/03/05 05:41:38;;;;;;;0.10;0.10;;;7.30;1.00;;;;;;5034308;28;20050;-70
2022/03/05 05:44:06;;;;;;;0.10;0.10;;;7.30;1.00;;;;;;5038058;28;20041;-71
2022/03/05 05:46:32;;;;;;;0.15;0.15;;;7.30;1.00;;;;;;5036899;28;20534;-71
2022/03/05 05:48:58;;;;;;;0.10;0.10;;;7.20;1.00;;;;;;5037399;28;20037;-71
2022/03/05 05:51:26;;;;;;;0.10;0.10;;;7.30;1.00;;;;;;5037340;28;20091;-71
2022/03/05 05:53:52;;;;;;;0.10;0.10;;;7.20;1.00;;;;;;5037351;28;20045;-71
2022/03/05 05:56:18;;;;;;;0.70;0.10;;;7.30;1.00;;;;;;5037286;28;20087;-71
2022/03/05 05:58:44;;;;;;;0.17;0.17;;;7.30;1.00;;;;;;5037475;28;20041;-71
2022/03/05 06:01:10;;;;;;;0.45;0.20;;;7.30;1.00;;;;;;5036869;28;20429;-71
2022/03/05 06:03:37;;;;;;;0.65;0.10;;;7.30;1.00;;;;;;5036535;28;20503;-71
2022/03/05 06:06:03;;;;;;;0.10;0.10;;;7.20;1.00;;;;;;5036788;28;20042;-70
2022/03/05 06:08:29;;;;;;;0.20;0.10;;;7.30;1.00;;;;;;5036769;28;20124;-71
2022/03/05 06:10:57;;;;;;;0.10;0.10;;;7.20;1.00;;;;;;5036985;28;20037;-70
2022/03/05 06:13:23;;;;;;;0.10;0.10;;;7.30;1.00;;;;;;5037064;28;20136;-70
2022/03/05 06:15:49;;;;;;;0.80;0.57;;;7.30;1.00;;;;;;5036903;28;20065;-70
2022/03/05 06:18:15;;;;;;;0.25;0.25;;;7.30;1.00;;;;;;5036663;28;20041;-70
2022/03/05 06:20:41;;;;;;;0.13;0.13;;;7.30;1.00;;;;;;5036538;28;20045;-70
2022/03/05 06:23:07;;;;;;;0.28;0.10;;;7.30;1.00;;;;;;5036617;28;20099;-70
2022/03/05 06:25:32;;;;;;;0.10;0.10;;;7.40;1.00;;;;;;5036404;28;20071;-70
2022/03/05 06:27:58;;;;;;;0.30;0.30;;;7.40;1.00;;;;;;5036672;28;20037;-70
2022/03/05 06:30:24;;;;;;;0.57;0.50;;;7.40;1.00;;;;;;5036620;28;20037;-70
2022/03/05 06:32:50;;;;;;;0.52;0.30;;;7.40;1.00;;;;;;5036321;28;20053;-70
2022/03/05 06:35:16;;;;;;;0.40;0.30;;;7.50;1.00;;;;;;5036544;28;20068;-70
2022/03/05 06:37:42;;;;;;;0.30;0.30;;;7.40;1.00;;;;;;5036147;28;20532;-71
2022/03/05 06:40:11;;;;;;;2.65;2.22;;;7.40;1.00;;;;;;5036380;28;20488;-70
2022/03/05 06:42:39;;;;;;;2.35;1.40;;;7.50;1.00;;;;;;5036647;28;20077;-71
2022/03/05 06:45:05;;;;;;;6.90;4.50;;;7.60;1.00;;;;;;5036033;28;20041;-70
2022/03/05 06:47:31;;;;;;;0.88;0.63;;;7.70;1.00;;;;;;5035745;28;20045;-70
2022/03/05 06:49:57;;;;;;;3.03;1.83;;;7.70;1.00;;;;;;5036191;28;20041;-70
2022/03/05 06:52:23;;;;;;;0.85;0.85;;;7.80;1.00;;;;;;5036094;28;20052;-70
2022/03/05 06:54:49;;;;;;;0.35;0.35;;;7.80;1.00;;;;;;5035853;28;20474;-70
2022/03/05 06:57:15;;;;;;;0.20;0.20;;;7.90;1.00;;;;;;5036092;28;20037;-70
2022/03/05 06:59:41;;;;;;;2.30;2.10;;;8.00;1.00;;;;;;5036003;28;20052;-71
2022/03/05 07:02:07;;;;;;;0.32;0.30;;;8.00;1.00;;;;;;5036032;28;20041;-71
2022/03/05 07:04:33;;;;;;;0.45;0.40;;;8.00;1.00;;;;;;5035977;28;20040;-70
2022/03/05 07:06:59;;;;;;;0.65;0.30;;;8.10;1.00;;;;;;5035668;28;20388;-70
2022/03/05 07:09:25;;;;;;;0.50;0.50;;;8.00;1.00;;;;;;5035869;28;20037;-70
2022/03/05 07:11:51;;;;;;;1.52;0.90;;;8.10;1.00;;;;;;5035759;28;20052;-70
2022/03/05 07:14:17;;;;;;;0.60;0.45;;;8.10;1.00;;;;;;5035736;28;20063;-71
2022/03/05 07:16:43;;;;;;;0.57;0.30;;;8.10;1.00;;;;;;5035241;28;20037;-71
2022/03/05 07:19:08;;;;;;;0.50;0.38;;;8.20;1.00;;;;;;5035660;28;20046;-71
2022/03/05 07:21:34;;;;;;;0.47;0.30;;;8.30;1.00;;;;;;5035516;28;20092;-70
2022/03/05 07:24:00;;;;;;;0.40;0.40;;;8.30;1.00;;;;;;5035576;28;20033;-71
2022/03/05 07:26:26;;;;;;;0.68;0.45;;;8.60;1.00;;;;;;5035666;28;20384;-71
2022/03/05 07:28:52;;;;;;;0.52;0.30;;;8.60;1.00;;;;;;5035244;28;20037;-71
2022/03/05 07:31:18;;;;;;;0.50;0.50;;;8.80;1.00;;;;;;5035270;28;20377;-70
2022/03/05 07:33:44;;;;;;;0.20;0.20;;;8.90;1.00;;;;;;5036017;28;20053;-71
2022/03/05 07:36:10;;;;;;;0.20;0.20;;;9.10;1.00;;;;;;5035345;28;20069;-70
2022/03/05 07:38:36;;;;;;;0.10;0.10;;;9.00;1.00;;;;;;5035287;28;20071;-70
2022/03/05 07:41:02;;;;;;;0.47;0.20;;;8.70;1.00;;;;;;5035337;28;20504;-70
2022/03/05 07:43:27;;;;;;;0.20;0.20;;;8.80;1.00;;;;;;5035242;28;20049;-70
2022/03/05 07:45:53;;;;;;;0.13;0.13;;;8.80;1.00;;;;;;5035188;28;20033;-70
2022/03/05 07:48:20;;;;;;;0.20;0.20;;;8.90;1.00;;;;;;5035268;28;20037;-70
2022/03/05 07:50:47;;;;;;;0.40;0.20;;;9.00;1.00;;;;;;5035617;28;20044;-70
2022/03/05 07:53:14;;;;;;;0.20;0.20;;;9.10;1.00;;;;;;5035232;28;20056;-70
2022/03/05 07:55:39;;;;;;;0.70;0.40;;;9.20;1.00;;;;;;5035279;28;20041;-70
2022/03/05 07:58:05;;;;;;;0.25;0.25;;;9.20;1.00;;;;;;5034992;28;20043;-70
2022/03/05 08:00:31;;;;;;;0.80;0.43;;;10.20;1.00;;;;;;5035261;28;20125;-71
2022/03/05 08:02:57;;;;;;;0.40;0.40;;;9.40;1.00;;;;;;5035120;28;20053;-71
2022/03/05 08:05:23;;;;;;;0.40;0.40;;;9.40;1.00;;;;;;5034733;28;20041;-71
2022/03/05 08:07:49;;;;;;;0.50;0.40;;;9.40;1.00;;;;;;5035168;28;20099;-71
2022/03/05 08:10:15;;;;;;;0.60;0.30;;;9.40;1.00;;;;;;5035090;28;20065;-71
2022/03/05 08:12:41;;;;;;;0.73;0.32;;;9.50;1.00;;;;;;5034935;28;20064;-70
2022/03/05 08:15:10;;;;;;;0.88;0.80;;;9.70;1.00;;;;;;5035038;28;20038;-70
2022/03/05 08:17:36;;;;;;;0.60;0.60;;;9.60;1.00;;;;;;5034840;28;20033;-70
2022/03/05 08:20:02;;;;;;;3.80;0.90;;;9.70;1.00;;;;;;5035184;28;20380;-70
2022/03/05 08:22:28;;;;;;;1.10;0.85;;;10.00;1.00;;;;;;5034757;28;20050;-70
2022/03/05 08:24:55;;;;;;;1.40;0.90;;;10.10;1.00;;;;;;5035465;28;20044;-70
2022/03/05 08:27:21;;;;;;;1.05;0.65;;;10.00;1.00;;;;;;5034828;28;20045;-70
2022/03/05 08:29:47;;;;;;;0.88;0.82;;;10.00;1.00;;;;;;5035106;28;20038;-70
2022/03/05 08:32:12;;;;;;;0.52;0.52;;;10.10;1.00;;;;;;5034639;28;20053;-70
2022/03/05 08:34:38;;;;;;;0.40;0.40;;;10.20;1.00;;;;;;5033572;28;20095;-71
2022/03/05 08:37:04;;;;;;;0.40;0.40;;;10.30;1.00;;;;;;5033014;28;20037;-70
2022/03/05 08:39:30;;;;;;;0.20;0.20;;;10.20;1.00;;;;;;5033917;28;20121;-70
2022/03/05 08:41:56;;;;;;;1.27;0.30;;;10.10;1.00;;;;;;5034204;28;20089;-70
2022/03/05 08:44:22;;;;;;;1.58;0.50;;;10.10;1.00;;;;;;5034408;28;20100;-70
2022/03/05 08:46:48;;;;;;;0.50;0.50;;;10.00;1.00;;;;;;5034175;28;20041;-71
2022/03/05 08:49:14;;;;;;;0.28;0.22;;;10.20;1.00;;;;;;5033647;28;20507;-70
2022/03/05 08:51:39;;;;;;;0.73;0.35;;;10.00;1.00;;;;;;5034298;28;20038;-70
2022/03/05 08:54:05;;;;;;;0.80;0.50;;;10.10;1.00;;;;;;5034845;28;20092;-71
2022/03/05 08:56:31;;;;;;;0.70;0.70;;;10.20;1.00;;;;;;5033153;28;20037;-70
2022/03/05 08:58:57;;;;;;;0.75;0.45;;;10.30;1.00;;;;;;5033805;28;20045;-70
2022/03/05 09:01:24;;;;;;;0.38;0.30;;;9.90;1.00;;;;;;5033012;28;20052;-70
2022/03/05 09:03:50;;;;;;;0.40;0.40;;;10.00;1.00;;;;;;5033081;28;20124;-70
2022/03/05 09:06:15;;;;;;;1.65;0.38;;;9.90;1.00;;;;;;5033330;28;20124;-70
2022/03/05 09:08:41;;;;;;;0.20;0.20;;;10.00;1.00;;;;;;5032224;28;20041;-70
2022/03/05 09:11:08;;;;;;;0.98;0.30;;;10.20;1.00;;;;;;5034413;28;20041;-70
2022/03/05 09:13:34;;;;;;;0.30;0.30;;;10.40;1.00;;;;;;5033689;28;20500;-70
2022/03/05 09:16:00;;;;;;;0.85;0.65;;;10.80;1.00;;;;;;5033585;28;20060;-70
2022/03/05 09:18:27;;;;;;;0.50;0.50;;;11.40;1.00;;;;;;5036195;28;20033;-70
2022/03/05 09:20:53;;;;;;;0.30;0.30;;;11.20;1.00;;;;;;5037676;28;20043;-70
2022/03/05 09:23:19;;;;;;;0.32;0.32;;;11.60;1.00;;;;;;5037167;28;20403;-70
2022/03/05 09:25:45;;;;;;;0.68;0.50;;;11.30;1.00;;;;;;5037474;28;20042;-70
2022/03/05 09:28:11;;;;;;;0.30;0.25;;;11.70;1.00;;;;;;5037779;28;20051;-70
2022/03/05 09:30:37;;;;;;;0.20;0.20;;;11.90;1.00;;;;;;5037691;28;20041;-70
2022/03/05 09:33:02;;;;;;;0.20;0.20;;;11.90;1.00;;;;;;5037116;28;20099;-70
2022/03/05 09:35:28;;;;;;;0.28;0.28;;;12.10;1.00;;;;;;5037785;28;20124;-70
2022/03/05 09:37:54;;;;;;;0.20;0.20;;;12.10;1.00;;;;;;5037570;28;20087;-70
2022/03/05 09:40:20;;;;;;;0.52;0.40;;;12.10;1.00;;;;;;5038062;28;20411;-70
2022/03/05 09:42:46;;;;;;;0.30;0.20;;;12.10;1.00;;;;;;5037644;28;20042;-70
2022/03/05 09:45:13;;;;;;;1.65;0.40;;;11.90;1.00;;;;;;5037008;28;20037;-70
2022/03/05 09:47:41;;;;;;;0.10;0.10;;;12.30;1.00;;;;;;5037556;28;20033;-70
2022/03/05 09:50:08;;;;;;;0.45;0.20;;;12.20;1.00;;;;;;5037665;28;20037;-70
2022/03/05 09:52:34;;;;;;;0.20;0.20;;;12.60;1.00;;;;;;5036061;28;20041;-70
2022/03/05 09:55:01;;;;;;;0.32;0.30;;;12.20;1.00;;;;;;5036901;28;20041;-70
2022/03/05 09:57:27;;;;;;;0.43;0.30;;;12.30;1.00;;;;;;5036549;28;20037;-70
2022/03/05 09:59:53;;;;;;;0.47;0.30;;;12.40;1.00;;;;;;5036748;28;20630;-70
2022/03/05 10:02:18;;;;;;;0.52;0.30;;;12.30;1.00;;;;;;5036308;28;20049;-70
2022/03/05 10:04:44;;;;;;;0.63;0.40;;;12.50;1.00;;;;;;5036427;28;20439;-70
2022/03/05 10:07:15;;;;;;;0.40;0.35;;;12.20;1.00;;;;;;5036291;28;20119;-70
2022/03/05 10:09:44;;;;;;;1.98;0.70;;;12.50;1.00;;;;;;5036525;28;20119;-70
2022/03/05 10:12:32;;;;;;;0.30;0.22;;;12.30;1.00;;;;;;5036658;28;20048;-70
2022/03/05 10:15:21;;;;;;;0.68;0.60;;;12.10;1.00;;;;;;5034001;28;20034;-70
2022/03/05 10:17:53;;;;;;;0.43;0.43;;;12.60;1.00;;;;;;5036090;28;20503;-70
2022/03/05 10:20:26;;;;;;;0.30;0.30;;;12.40;1.00;;;;;;5036228;28;20088;-70
2022/03/05 10:22:57;;;;;;;0.30;0.30;;;12.10;1.00;;;;;;5036171;28;20045;-70
2022/03/05 10:25:32;;;;;;;0.30;0.30;;;12.20;1.00;;;;;;5036164;28;20037;-70
2022/03/05 10:28:05;;;;;;;0.65;0.30;;;12.60;1.00;;;;;;5034864;28;20034;-70
2022/03/05 10:30:36;;;;;;;0.30;0.20;;;12.60;1.00;;;;;;5036553;28;20577;-70
2022/03/05 10:33:03;;;;;;;0.30;0.30;;;12.30;1.00;;;;;;5018158;28;20115;-70
2022/03/05 10:35:29;;;;;;;0.52;0.30;;;12.20;1.00;;;;;;5035592;28;20044;-70
2022/03/05 10:37:55;;;;;;;0.65;0.30;;;12.30;1.00;;;;;;5036105;28;20033;-69
2022/03/05 10:40:29;;;;;;;0.40;0.40;;;12.40;1.00;;;;;;5035853;28;20040;-70
2022/03/05 10:42:59;;;;;;;0.40;0.40;;;12.30;1.00;;;;;;5035710;28;20053;-70
2022/03/05 10:45:25;;;;;;;0.30;0.30;;;12.50;1.00;;;;;;5035664;28;20065;-71
2022/03/05 10:47:51;;;;;;;0.50;0.50;;;12.10;1.00;;;;;;5035102;28;20080;-70
2022/03/05 10:50:23;;;;;;;0.30;0.30;;;12.30;1.00;;;;;;5035663;28;20048;-70
2022/03/05 10:53:02;;;;;;;0.80;0.50;;;12.20;1.00;;;;;;5035473;28;20041;-70
2022/03/05 10:55:34;;;;;;;1.13;0.90;;;12.40;1.00;;;;;;5035515;28;20037;-70
2022/03/05 10:58:04;;;;;;;0.95;0.73;;;11.90;1.00;;;;;;5032072;28;20408;-71
2022/03/05 11:00:31;;;;;;;0.40;0.40;;;11.70;1.00;;;;;;5032800;28;20048;-69
2022/03/05 11:03:00;;;;;;;0.50;0.50;;;11.60;1.00;;;;;;5034468;28;20045;-71
2022/03/05 11:05:27;;;;;;;2.53;0.60;;;11.90;1.00;;;;;;5035068;28;20539;-71
2022/03/05 11:07:54;;;;;;;0.68;0.68;;;12.30;1.00;;;;;;5034573;28;20033;-70
2022/03/05 11:10:24;;;;;;;0.52;0.52;;;12.10;1.00;;;;;;5035226;28;20033;-71
2022/03/05 11:12:52;;;;;;;0.60;0.60;;;11.90;1.00;;;;;;5032061;28;20080;-71
2022/03/05 11:15:19;;;;;;;0.50;0.50;;;12.00;1.00;;;;;;5035007;28;20037;-70
2022/03/05 11:17:48;;;;;;;1.23;0.50;;;12.00;1.00;;;;;;5034091;28;20529;-70
2022/03/05 11:20:15;;;;;;;3.13;2.83;;;12.10;1.00;;;;;;5031720;28;20221;-70
2022/03/05 11:22:49;;;;;;;3.88;2.90;;;12.20;1.00;;;;;;5035007;28;20051;-70
2022/03/05 11:25:17;;;;;;;4.72;4.28;;;12.10;1.00;;;;;;5035124;28;20041;-71
2022/03/05 11:28:01;;;;;;;6.20;4.90;;;11.90;1.00;;;;;;5034648;28;20048;-71
2022/03/05 11:30:38;;;;;;;4.40;3.53;;;11.80;1.00;;;;;;5034489;28;20063;-72
2022/03/05 11:33:09;;;;;;;0.82;0.75;;;11.80;1.00;;;;;;5034336;28;20061;-71
2022/03/05 11:35:42;;;;;;;0.75;0.65;;;12.00;1.00;;;;;;5033454;28;20034;-71
2022/03/05 11:38:35;;;;;;;7.18;5.80;;;11.80;1.00;;;;;;5034811;28;20041;-71
2022/03/05 11:41:19;;;;;;;1.85;1.63;;;12.20;1.00;;;;;;5033375;28;20037;-72
2022/03/05 11:43:49;;;;;;;6.47;5.60;;;12.20;1.00;;;;;;5035128;28;20080;-71
2022/03/05 11:46:27;;;;;;;0.60;0.60;;;12.40;1.00;;;;;;5034322;28;20041;-71
2022/03/05 11:49:01;;;;;;;1.00;1.00;;;12.10;1.00;;;;;;5035120;28;20043;-70
2022/03/05 11:51:27;;;;;;;1.08;0.50;;;12.30;1.00;;;;;;5033992;28;20049;-71
2022/03/05 11:54:12;;;;;;;2.38;1.30;;;12.20;1.00;;;;;;5034444;28;20053;-71
2022/03/05 11:56:38;;;;;;;0.85;0.85;;;12.00;1.00;;;;;;5034746;28;20610;-71
2022/03/05 11:59:31;;;;;;;0.70;0.65;;;12.10;1.00;;;;;;5034609;28;20112;-71
2022/03/05 12:01:57;;;;;;;1.55;1.40;;;11.50;1.00;;;;;;5031396;28;20037;-71
2022/03/05 12:04:30;;;;;;;2.25;1.30;;;11.60;1.00;;;;;;5034281;28;20033;-71
2022/03/05 12:07:04;;;;;;;1.52;1.40;;;11.70;1.00;;;;;;5034808;28;20088;-71
2022/03/05 12:09:34;;;;;;;15.82;13.43;;;11.80;1.00;;;;;;5034932;28;20575;-71
2022/03/05 12:12:01;;;;;;;0.80;0.60;;;11.50;1.00;;;;;;5034607;28;20044;-71
2022/03/05 12:14:58;;;;;;;1.35;1.25;;;11.50;1.00;;;;;;5034662;28;20109;-71
2022/03/05 12:17:24;;;;;;;1.02;1.00;;;11.20;1.00;;;;;;5034512;28;20476;-71
2022/03/05 12:19:50;;;;;;;0.82;0.65;;;11.20;1.00;;;;;;5034178;28;20496;-71
2022/03/05 12:22:16;;;;;;;0.85;0.50;;;11.40;1.00;;;;;;5018900;28;20408;-71
2022/03/05 12:24:42;;;;;;;0.80;0.50;;;11.30;1.00;;;;;;5025681;28;20038;-71
2022/03/05 12:27:14;;;;;;;0.93;0.75;;;11.20;1.00;;;;;;5033920;28;20038;-71
2022/03/05 12:29:51;;;;;;;0.80;0.80;;;11.20;1.00;;;;;;5032554;28;20053;-70
2022/03/05 12:32:18;;;;;;;9.73;1.30;;;10.70;1.00;;;;;;5033582;28;20057;-70
2022/03/05 12:34:44;;;;;;;1.63;0.90;;;10.80;1.00;;;;;;5033663;28;20043;-70
2022/03/05 12:37:11;;;;;;;3.00;1.00;;;11.10;1.00;;;;;;5033747;28;20447;-71
2022/03/05 12:39:43;;;;;;;0.73;0.50;;;11.10;1.00;;;;;;5034280;28;20040;-72
2022/03/05 12:42:10;;;;;;;0.77;0.50;;;10.90;1.00;;;;;;5034045;28;20133;-71
2022/03/05 12:44:37;;;;;;;1.10;0.80;;;11.00;1.00;;;;;;5015145;28;20037;-71
2022/03/05 12:47:03;;;;;;;1.15;0.73;;;11.00;1.00;;;;;;5016008;28;20489;-70
2022/03/05 12:49:29;;;;;;;0.93;0.80;;;11.00;1.00;;;;;;5033233;28;20033;-71
2022/03/05 12:51:55;;;;;;;0.98;0.63;;;10.90;1.00;;;;;;5034711;28;20076;-70
2022/03/05 12:54:21;;;;;;;0.93;0.70;;;10.80;1.00;;;;;;5037630;28;20040;-71
2022/03/05 12:56:47;;;;;;;1.92;0.80;;;10.80;1.00;;;;;;5037076;28;20033;-71
2022/03/05 12:59:14;;;;;;;1.38;1.15;;;10.70;1.00;;;;;;5037310;28;20038;-70
2022/03/05 13:01:40;;;;;;;1.30;1.10;;;10.90;1.00;;;;;;5037063;28;20248;-71
2022/03/05 13:04:06;;;;;;;1.65;0.82;;;10.80;1.00;;;;;;5036572;28;20128;-71